Time;durP1;ratioP1;P1;durP2;ratioP2;P2;SDS_P1;SDS_P2;PMS_P1;PMS_P2;Temp;Humidity;BMP_temperature;BMP_pressure;BME280_temperature;BME280_humidity;BME280_pressure;Samples;Min_cycle;Max_cycle;Signal;HPM_P1;HPM_P2
2022/08/26 00:00:40;;;;;;;;;3.75;3.75;;;;;24.10;54.23;101285.59;5079989;27;45344;-65
2022/08/26 00:03:05;;;;;;;;;2.00;2.00;;;;;24.10;54.37;101297.38;5070327;27;46293;-65
2022/08/26 00:05:30;;;;;;;;;4.00;2.00;;;;;24.03;54.95;101285.25;5076219;28;45467;-65
2022/08/26 00:07:56;;;;;;;;;3.00;3.00;;;;;23.98;55.08;101277.41;5075789;28;45294;-65
2022/08/26 00:10:22;;;;;;;;;2.25;2.00;;;;;23.99;55.19;101284.63;5075671;28;45354;-65
2022/08/26 00:12:47;;;;;;;;;1.75;1.75;;;;;23.98;54.78;101277.41;5078157;27;45530;-65
2022/08/26 00:15:15;;;;;;;;;0.75;0.75;;;;;23.96;54.95;101271.22;5079917;28;45769;-65
2022/08/26 00:17:41;;;;;;;;;3.00;2.25;;;;;24.04;54.79;101287.84;5079591;28;45297;-65
2022/08/26 00:20:09;;;;;;;;;1.75;1.75;;;;;24.01;54.89;101288.09;5080481;28;45565;-65
2022/08/26 00:22:35;;;;;;;;;4.00;4.00;;;;;23.99;55.02;101284.63;5074542;28;46714;-65
2022/08/26 00:25:01;;;;;;;;;2.00;2.00;;;;;23.99;55.46;101289.19;5080412;28;45767;-65
2022/08/26 00:27:26;;;;;;;;;3.00;3.00;;;;;23.95;55.54;101295.91;5076992;27;45482;-65
2022/08/26 00:29:52;;;;;;;;;4.75;3.50;;;;;23.95;55.17;101296.75;5080293;28;45615;-65
2022/08/26 00:32:17;;;;;;;;;3.00;3.00;;;;;23.90;55.24;101290.81;5071149;28;46863;-65
2022/08/26 00:34:42;;;;;;;;;3.00;3.00;;;;;23.90;55.69;101287.22;5070318;28;45601;-65
2022/08/26 00:37:09;;;;;;;;;3.50;3.50;;;;;23.89;55.69;101294.53;5079376;27;45445;-65
2022/08/26 00:39:34;;;;;;;;;4.50;4.00;;;;;23.88;55.85;101297.38;5079230;28;45390;-65
2022/08/26 00:41:59;;;;;;;;;2.75;2.75;;;;;23.80;55.68;101295.22;5080312;28;46278;-65
2022/08/26 00:44:25;;;;;;;;;7.00;5.75;;;;;23.77;55.88;101296.34;5080105;28;45215;-65
2022/08/26 00:46:57;;;;;;;;;5.00;2.25;;;;;23.79;55.94;101299.81;5079488;28;45492;-65
2022/08/26 00:49:46;;;;;;;;;4.00;2.00;;;;;23.79;56.01;101301.66;5078609;27;45506;-65
2022/08/26 00:52:16;;;;;;;;;2.50;2.50;;;;;23.76;56.19;101310.09;5069918;28;46239;-65
2022/08/26 00:54:51;;;;;;;;;2.75;2.75;;;;;23.74;56.19;101312.06;5066734;28;45408;-65
2022/08/26 00:57:18;;;;;;;;;4.00;4.00;;;;;23.68;56.17;101303.38;5079060;28;45398;-65
2022/08/26 00:59:53;;;;;;;;;3.75;3.75;;;;;23.69;56.44;101307.00;5076741;27;46015;-65
2022/08/26 01:02:19;;;;;;;;;3.50;3.50;;;;;23.68;56.47;101308.84;5076679;28;45596;-65
2022/08/26 01:04:47;;;;;;;;;3.00;3.00;;;;;23.68;56.23;101300.66;5069671;28;45259;-65
2022/08/26 01:07:12;;;;;;;;;4.25;4.00;;;;;23.67;56.48;101303.50;5078559;28;45493;-65
2022/08/26 01:09:37;;;;;;;;;4.00;4.00;;;;;23.68;56.35;101300.66;5078835;27;51588;-65
2022/08/26 01:12:03;;;;;;;;;4.75;3.75;;;;;23.64;56.54;101301.91;5076996;28;45425;-65
2022/08/26 01:14:34;;;;;;;;;4.00;4.00;;;;;23.66;56.01;101297.19;5078953;28;45470;-65
2022/08/26 01:17:05;;;;;;;;;3.50;3.50;;;;;23.67;56.52;101298.94;5078021;28;45485;-65
2022/08/26 01:19:36;;;;;;;;;5.00;5.00;;;;;23.69;56.74;101293.38;5078922;28;45460;-65
2022/08/26 01:22:12;;;;;;;;;5.25;4.25;;;;;23.63;56.43;101297.44;5077662;28;45277;-65
2022/08/26 01:24:40;;;;;;;;;3.25;3.25;;;;;23.66;56.52;101293.59;5071228;27;45425;-65
2022/08/26 01:27:07;;;;;;;;;3.00;3.00;;;;;23.66;56.73;101296.34;5079561;28;45310;-65
2022/08/26 01:29:36;;;;;;;;;3.00;3.00;;;;;23.61;56.77;101287.66;5078365;28;45324;-65
2022/08/26 01:32:03;;;;;;;;;5.00;5.00;;;;;23.64;56.78;101292.88;5070927;27;45343;-65
2022/08/26 01:34:33;;;;;;;;;4.25;3.50;;;;;23.59;56.61;101298.66;5082702;27;45731;-65
2022/08/26 01:37:17;;;;;;;;;3.00;3.00;;;;;23.62;56.59;101294.81;5075127;27;45353;-65
2022/08/26 01:39:45;;;;;;;;;5.00;3.00;;;;;23.62;56.88;101292.09;5082958;28;45391;-65
2022/08/26 01:42:13;;;;;;;;;5.25;5.25;;;;;23.59;56.89;101298.66;5082531;28;45254;-65
2022/08/26 01:44:44;;;;;;;;;4.50;4.50;;;;;23.56;56.76;101298.91;5080960;27;45466;-65
2022/08/26 01:47:12;;;;;;;;;5.50;4.25;;;;;23.55;57.30;101297.16;5074472;28;45312;-65
2022/08/26 01:49:38;;;;;;;;;3.00;3.00;;;;;23.53;57.23;101299.16;5082964;28;45426;-65
2022/08/26 01:52:06;;;;;;;;;5.75;5.00;;;;;23.55;57.00;101305.34;5073281;28;46311;-65
2022/08/26 01:54:32;;;;;;;;;6.00;6.00;;;;;23.49;57.22;101298.53;5075324;27;45464;-65
2022/08/26 01:56:58;;;;;;;;;7.25;6.00;;;;;23.51;57.22;101294.81;5082137;28;45475;-65
2022/08/26 01:59:24;;;;;;;;;6.00;6.00;;;;;23.51;57.29;101301.13;5082867;28;45307;-65
2022/08/26 02:01:51;;;;;;;;;7.00;5.75;;;;;23.52;56.73;101307.44;5081143;28;46374;-65
2022/08/26 02:04:37;;;;;;;;;6.00;6.00;;;;;23.52;57.15;101313.75;5069058;27;45181;-65
2022/08/26 02:07:06;;;;;;;;;5.75;5.75;;;;;23.50;57.38;101315.72;5075227;28;45296;-65
2022/08/26 02:09:32;;;;;;;;;9.00;7.75;;;;;23.44;57.27;101308.06;5082869;28;45304;-65
2022/08/26 02:12:00;;;;;;;;;6.75;6.75;;;;;23.43;57.32;101309.03;5081959;28;45374;-65
2022/08/26 02:14:35;;;;;;;;;8.00;5.75;;;;;23.43;57.61;101312.63;5064718;28;45443;-66
2022/08/26 02:17:02;;;;;;;;;7.00;7.00;;;;;23.45;57.54;101320.66;5081254;28;46600;-65
2022/08/26 02:19:33;;;;;;;;;5.00;5.00;;;;;23.42;57.69;101318.19;5082676;28;45500;-65
2022/08/26 02:22:03;;;;;;;;;9.00;8.00;;;;;23.43;57.66;101317.19;5080197;28;46195;-65
2022/08/26 02:24:51;;;;;;;;;9.00;9.00;;;;;23.34;57.66;101318.78;5084623;27;45338;-65
2022/08/26 02:27:21;;;;;;;;;6.00;6.00;;;;;23.28;57.48;101309.22;5069055;28;45323;-65
2022/08/26 02:29:50;;;;;;;;;9.25;9.25;;;;;23.33;58.04;101316.19;5082273;28;45322;-65
2022/08/26 02:32:15;;;;;;;;;7.50;7.50;;;;;23.24;57.53;101310.47;5081610;27;46460;-65
2022/08/26 02:34:41;;;;;;;;;10.25;6.75;;;;;23.27;58.07;101312.94;5074807;28;45525;-65
2022/08/26 02:37:09;;;;;;;;;8.00;8.00;;;;;23.28;57.71;101320.13;5082010;28;45305;-65
2022/08/26 02:39:36;;;;;;;;;8.50;8.50;;;;;23.30;57.78;101328.16;5064009;28;45511;-65
2022/08/26 02:42:04;;;;;;;;;8.00;7.50;;;;;23.27;57.86;101326.56;5062439;28;47586;-65
2022/08/26 02:44:30;;;;;;;;;8.50;8.50;;;;;23.26;57.86;101323.97;5081298;28;45566;-65
2022/08/26 02:46:55;;;;;;;;;9.25;9.25;;;;;23.24;58.26;101325.94;5063187;28;45431;-65
2022/08/26 02:49:22;;;;;;;;;7.00;7.00;;;;;23.24;58.12;101325.94;5082104;28;45335;-65
2022/08/26 02:51:48;;;;;;;;;9.50;9.50;;;;;23.24;57.86;101317.78;5077789;27;46153;-65
2022/08/26 02:54:15;;;;;;;;;8.25;7.00;;;;;23.23;57.45;101325.06;5068474;28;45368;-65
2022/08/26 02:56:40;;;;;;;;;8.75;7.75;;;;;23.24;57.95;101324.06;5081270;28;45381;-65
2022/08/26 02:59:06;;;;;;;;;7.50;7.50;;;;;23.25;57.94;101328.50;5081121;28;45236;-65
2022/08/26 03:01:34;;;;;;;;;9.25;8.75;;;;;23.27;58.13;101322.94;5080971;27;45726;-65
2022/08/26 03:04:02;;;;;;;;;9.00;9.00;;;;;23.26;58.10;101321.25;5079818;27;45377;-65
2022/08/26 03:06:28;;;;;;;;;9.25;9.00;;;;;23.19;57.85;101315.38;5081420;28;45424;-65
2022/08/26 03:08:54;;;;;;;;;9.50;8.25;;;;;23.19;58.12;101325.41;5080694;28;45554;-65
2022/08/26 03:11:21;;;;;;;;;11.00;10.25;;;;;23.15;58.12;101327.50;5081708;28;45306;-65
2022/08/26 03:13:47;;;;;;;;;9.75;8.25;;;;;23.13;58.43;101314.00;5079256;28;45394;-65
2022/08/26 03:16:13;;;;;;;;;9.25;8.50;;;;;23.11;58.41;101320.56;5080600;28;45319;-65
2022/08/26 03:18:39;;;;;;;;;9.00;9.00;;;;;23.12;58.56;101316.81;5081483;28;45519;-65
2022/08/26 03:21:06;;;;;;;;;12.75;10.50;;;;;23.13;58.35;101324.88;5078253;28;45449;-65
2022/08/26 03:23:32;;;;;;;;;12.50;11.75;;;;;23.11;58.58;101315.09;5075989;27;45483;-65
2022/08/26 03:25:58;;;;;;;;;9.25;9.25;;;;;23.10;58.39;101308.81;5081401;28;45513;-65
2022/08/26 03:28:23;;;;;;;;;14.25;12.75;;;;;23.11;58.72;101318.69;5080682;28;45525;-65
2022/08/26 03:30:48;;;;;;;;;12.75;11.25;;;;;23.08;58.32;101318.06;5080311;28;45322;-65
2022/08/26 03:33:14;;;;;;;;;13.00;10.75;;;;;23.05;59.00;101320.97;5062588;28;45288;-65
2022/08/26 03:35:42;;;;;;;;;12.25;12.25;;;;;22.98;58.56;101304.25;5079014;28;45463;-65
2022/08/26 03:38:08;;;;;;;;;10.75;10.25;;;;;22.99;58.59;101313.25;5080930;28;45511;-65
2022/08/26 03:40:37;;;;;;;;;10.75;10.75;;;;;23.00;58.59;101318.59;5074944;28;46539;-65
2022/08/26 03:43:05;;;;;;;;;13.50;11.00;;;;;22.99;58.79;101314.16;5078339;28;45312;-65
2022/08/26 03:45:31;;;;;;;;;9.25;9.25;;;;;22.98;59.11;101319.72;5081452;28;45375;-65
2022/08/26 03:47:57;;;;;;;;;12.25;9.75;;;;;22.98;59.07;101326.03;5080977;28;45315;-65
2022/08/26 03:50:23;;;;;;;;;14.25;10.50;;;;;22.99;59.04;101316.88;5080317;28;45264;-65
2022/08/26 03:52:50;;;;;;;;;10.00;9.50;;;;;22.98;59.00;101308.81;5079467;28;45339;-65
2022/08/26 03:55:16;;;;;;;;;10.00;8.50;;;;;22.97;58.97;101313.41;5081315;28;45311;-65
2022/08/26 03:57:42;;;;;;;;;9.00;9.00;;;;;23.01;58.83;101314.91;5080891;28;45540;-65
2022/08/26 04:00:13;;;;;;;;;11.75;10.75;;;;;23.00;58.95;101313.16;5078916;28;46258;-65
2022/08/26 04:02:38;;;;;;;;;12.00;11.50;;;;;23.03;59.03;101320.22;5074983;28;45247;-65
2022/08/26 04:05:04;;;;;;;;;8.25;8.25;;;;;22.98;58.85;101308.81;5069120;28;45408;-65
2022/08/26 04:07:29;;;;;;;;;11.75;11.75;;;;;23.03;59.06;101314.78;5071061;28;45328;-65
2022/08/26 04:09:56;;;;;;;;;11.00;10.50;;;;;23.01;59.22;101309.47;5080636;28;46548;-65
2022/08/26 04:12:24;;;;;;;;;11.25;11.25;;;;;23.03;59.03;101321.09;5075673;28;45323;-65
2022/08/26 04:14:50;;;;;;;;;14.00;9.25;;;;;23.05;59.50;101319.13;5080883;28;45327;-65
2022/08/26 04:17:15;;;;;;;;;12.75;11.50;;;;;23.05;59.33;101320.97;5080443;28;45253;-65
2022/08/26 04:19:40;;;;;;;;;16.50;14.25;;;;;23.01;59.09;101317.63;5080416;28;45494;-65
2022/08/26 04:22:07;;;;;;;;;14.25;12.75;;;;;22.99;58.95;101310.53;5079210;28;45386;-65
2022/08/26 04:24:33;;;;;;;;;11.50;10.75;;;;;22.97;59.35;101323.41;5080571;28;45274;-65
2022/08/26 04:27:02;;;;;;;;;13.50;12.25;;;;;22.96;59.21;101318.97;5080825;28;45209;-65
2022/08/26 04:29:28;;;;;;;;;8.25;7.25;;;;;22.95;59.05;101320.81;5061250;28;46292;-65
2022/08/26 04:31:54;;;;;;;;;15.25;13.50;;;;;22.95;59.60;101326.25;5061652;28;45324;-65
2022/08/26 04:34:21;;;;;;;;;10.50;10.25;;;;;22.96;59.45;101322.56;5074673;28;45236;-65
2022/08/26 04:36:46;;;;;;;;;13.75;12.25;;;;;22.96;59.22;101322.56;5073968;28;45330;-65
2022/08/26 04:39:15;;;;;;;;;14.25;12.00;;;;;22.93;59.67;101328.22;5079888;28;45534;-65
2022/08/26 04:41:42;;;;;;;;;11.00;11.00;;;;;22.89;59.48;101319.41;5078424;28;45515;-65
2022/08/26 04:44:08;;;;;;;;;11.50;11.50;;;;;22.92;59.47;101327.38;5080112;28;45307;-65
2022/08/26 04:46:35;;;;;;;;;20.00;16.00;;;;;22.93;59.67;101329.09;5079170;28;45675;-65
2022/08/26 04:49:01;;;;;;;;;14.50;13.50;;;;;22.95;59.62;101334.41;5079322;28;45564;-65
2022/08/26 04:51:26;;;;;;;;;12.25;9.50;;;;;22.92;59.59;101327.38;5079758;28;45301;-65
2022/08/26 04:53:56;;;;;;;;;13.25;13.25;;;;;22.94;59.59;101335.41;5079980;28;45295;-65
2022/08/26 04:56:27;;;;;;;;;16.00;13.75;;;;;22.92;59.63;101326.47;5068992;28;45406;-65
2022/08/26 04:58:52;;;;;;;;;12.00;11.00;;;;;22.95;59.59;101337.13;5078994;28;45439;-65
2022/08/26 05:01:19;;;;;;;;;14.25;14.00;;;;;22.90;59.55;101332.06;5079340;28;45260;-65
2022/08/26 05:03:45;;;;;;;;;10.50;9.50;;;;;22.90;59.66;101333.88;5078676;28;45373;-65
2022/08/26 05:06:11;;;;;;;;;16.75;12.75;;;;;22.93;59.40;101339.97;5077864;28;45383;-65
2022/08/26 05:08:37;;;;;;;;;18.25;14.00;;;;;22.89;59.69;101337.63;5078901;28;45830;-65
2022/08/26 05:11:04;;;;;;;;;13.50;13.25;;;;;22.91;59.76;101339.22;5080156;28;45324;-65
2022/08/26 05:13:30;;;;;;;;;14.50;12.00;;;;;22.91;59.85;101351.97;5078345;28;45347;-65
2022/08/26 05:15:55;;;;;;;;;15.00;14.00;;;;;22.91;59.79;101349.25;5079777;28;45228;-65
2022/08/26 05:18:22;;;;;;;;;16.25;14.75;;;;;22.92;59.71;101340.09;5077421;28;45429;-65
2022/08/26 05:20:51;;;;;;;;;13.75;13.00;;;;;22.91;59.75;101347.38;5079786;28;45481;-65
2022/08/26 05:23:17;;;;;;;;;15.50;14.50;;;;;22.88;59.86;101347.63;5059774;28;45509;-65
2022/08/26 05:25:45;;;;;;;;;15.75;15.50;;;;;22.88;59.55;101355.78;5079689;28;45327;-65
2022/08/26 05:28:14;;;;;;;;;15.50;14.25;;;;;22.89;59.69;101362.97;5078626;28;47948;-65
2022/08/26 05:30:40;;;;;;;;;20.00;15.00;;;;;22.85;59.80;101352.44;5077109;28;45528;-65
2022/08/26 05:33:07;;;;;;;;;16.00;14.50;;;;;22.84;60.24;101365.19;5059795;28;45461;-65
2022/08/26 05:35:34;;;;;;;;;17.00;16.25;;;;;22.85;59.52;101366.91;5066570;28;45461;-65
2022/08/26 05:38:01;;;;;;;;;15.25;13.75;;;;;22.82;59.96;101374.41;5061010;28;48481;-65
2022/08/26 05:40:28;;;;;;;;;18.25;16.75;;;;;22.80;60.01;101365.50;5075295;28;45498;-65
2022/08/26 05:42:53;;;;;;;;;15.50;15.25;;;;;22.78;60.12;101379.22;5077521;28;45437;-65
2022/08/26 05:45:19;;;;;;;;;13.50;13.50;;;;;22.76;59.98;101370.31;5079486;28;45284;-65
2022/08/26 05:47:45;;;;;;;;;15.00;15.00;;;;;22.75;60.05;101374.00;5079309;28;45487;-65
2022/08/26 05:50:10;;;;;;;;;14.50;14.00;;;;;22.73;60.13;101376.84;5051809;28;45473;-65
2022/08/26 05:52:36;;;;;;;;;12.50;10.75;;;;;22.76;60.29;101379.34;5078128;28;45441;-65
2022/08/26 05:55:02;;;;;;;;;17.25;14.50;;;;;22.74;60.15;101381.31;5079409;28;45471;-65
2022/08/26 05:57:28;;;;;;;;;18.00;17.25;;;;;22.76;60.42;101381.19;5079059;28;46373;-65
2022/08/26 05:59:55;;;;;;;;;11.25;10.75;;;;;22.78;60.60;101379.22;5078679;28;45604;-65
2022/08/26 06:02:20;;;;;;;;;16.75;15.50;;;;;22.75;60.13;101374.91;5076534;28;45297;-65
2022/08/26 06:04:46;;;;;;;;;13.75;13.75;;;;;22.75;60.36;101382.16;5049026;28;45659;-65
2022/08/26 06:07:11;;;;;;;;;16.00;14.75;;;;;22.75;60.08;101390.34;5077197;27;45339;-66
2022/08/26 06:09:36;;;;;;;;;16.00;13.50;;;;;22.72;60.21;101377.84;5078363;28;45351;-65
2022/08/26 06:12:02;;;;;;;;;14.50;12.50;;;;;22.74;60.03;101386.75;5076788;28;45473;-65
2022/08/26 06:14:29;;;;;;;;;14.75;13.50;;;;;22.74;60.33;101386.75;5074457;27;45343;-66
2022/08/26 06:16:55;;;;;;;;;16.00;16.00;;;;;22.76;59.96;101390.22;5078781;28;45555;-66
2022/08/26 06:19:20;;;;;;;;;13.25;12.25;;;;;22.76;60.28;101387.50;5079890;28;45517;-65
2022/08/26 06:21:47;;;;;;;;;11.75;11.25;;;;;22.74;60.37;101394.91;5081564;28;45765;-66
2022/08/26 06:27:03;;;;;;;;;15.25;14.25;;;;;22.61;60.65;101385.06;5082236;28;45756;-67
2022/08/26 06:29:32;;;;;;;;;18.25;18.25;;;;;22.61;60.31;101388.63;5082421;28;45219;-67
2022/08/26 06:31:58;;;;;;;;;17.50;15.50;;;;;22.56;60.30;101385.38;5078900;28;45505;-67
2022/08/26 06:34:27;;;;;;;;;13.00;12.50;;;;;22.47;60.61;101370.59;5074667;28;45431;-67
2022/08/26 06:36:52;;;;;;;;;18.25;16.00;;;;;22.46;60.75;101370.72;5085375;27;45396;-67
2022/08/26 06:39:18;;;;;;;;;16.50;14.00;;;;;22.41;60.71;101373.75;5073741;27;46369;-67
2022/08/26 06:41:44;;;;;;;;;15.00;13.50;;;;;22.37;60.43;101375.84;5081914;28;45422;-67
2022/08/26 06:44:12;;;;;;;;;13.50;11.25;;;;;22.34;60.87;101384.22;5082270;28;45431;-67
2022/08/26 06:46:38;;;;;;;;;10.75;10.75;;;;;22.32;60.66;101378.03;5080388;28;45444;-67
2022/08/26 06:49:04;;;;;;;;;13.00;12.50;;;;;22.34;60.22;101386.06;5081245;27;45847;-67
2022/08/26 06:51:33;;;;;;;;;12.50;10.00;;;;;22.34;60.25;101386.94;5081764;28;45518;-67
2022/08/26 06:53:59;;;;;;;;;15.25;12.00;;;;;22.33;60.38;101395.19;5069618;28;45589;-67
2022/08/26 06:56:41;;;;;;;;;14.50;11.75;;;;;22.31;60.36;101397.16;5081566;28;47045;-67
2022/08/26 06:59:07;;;;;;;;;11.25;11.25;;;;;22.29;60.33;101397.28;5081291;27;45434;-67
2022/08/26 07:01:36;;;;;;;;;12.25;11.50;;;;;22.30;60.00;101392.69;5081815;28;45574;-66
2022/08/26 07:04:04;;;;;;;;;12.50;11.75;;;;;22.32;60.38;101393.44;5067658;28;45406;-66
2022/08/26 07:06:34;;;;;;;;;11.50;9.25;;;;;22.36;60.44;101397.72;5058900;28;45462;-66
2022/08/26 07:09:03;;;;;;;;;14.00;13.50;;;;;22.36;60.22;101384.97;5064943;28;45331;-66
2022/08/26 07:11:29;;;;;;;;;11.75;11.75;;;;;22.42;60.52;101390.94;5080750;28;45362;-66
2022/08/26 07:13:54;;;;;;;;;12.50;12.00;;;;;22.35;60.41;101380.53;5077247;28;45537;-66
2022/08/26 07:16:20;;;;;;;;;13.00;12.50;;;;;22.41;60.41;101375.63;5070487;27;45407;-66
2022/08/26 07:18:47;;;;;;;;;14.75;12.50;;;;;22.37;60.11;101374.97;5060796;27;45395;-67
2022/08/26 07:21:15;;;;;;;;;15.00;14.25;;;;;22.45;60.19;101385.28;5079830;27;45623;-66
2022/08/26 07:23:40;;;;;;;;;11.25;11.25;;;;;22.47;60.57;101375.16;5062483;28;45532;-66
2022/08/26 07:26:11;;;;;;;;;12.25;10.75;;;;;22.53;60.66;101391.91;5081124;28;46103;-66
2022/08/26 07:28:37;;;;;;;;;13.25;12.25;;;;;22.54;60.25;101388.22;5056742;28;45678;-67
2022/08/26 07:31:04;;;;;;;;;13.50;13.50;;;;;22.55;60.02;101389.06;5065724;28;45297;-66
2022/08/26 07:33:29;;;;;;;;;13.50;12.50;;;;;22.57;60.31;101395.31;5054470;28;45764;-66
2022/08/26 07:35:55;;;;;;;;;14.75;12.75;;;;;22.57;59.68;101404.31;5071262;28;46482;-66
2022/08/26 07:38:20;;;;;;;;;12.00;11.25;;;;;22.55;59.85;101394.53;5080101;28;45446;-66
2022/08/26 07:40:46;;;;;;;;;12.25;9.25;;;;;22.61;59.78;101401.38;5079308;28;45349;-66
2022/08/26 07:43:12;;;;;;;;;15.25;14.75;;;;;22.62;60.34;101401.28;5079139;28;45643;-66
2022/08/26 07:45:38;;;;;;;;;15.50;12.25;;;;;22.58;59.99;101391.56;5079973;28;45456;-67
2022/08/26 07:48:04;;;;;;;;;10.50;10.00;;;;;22.65;59.83;101403.75;5079147;28;45379;-66
2022/08/26 07:50:30;;;;;;;;;15.50;12.00;;;;;22.68;59.52;101402.66;5062166;28;45351;-66
2022/08/26 07:52:55;;;;;;;;;14.50;13.00;;;;;22.64;58.95;101395.72;5079050;28;45387;-65
2022/08/26 07:55:21;;;;;;;;;12.50;12.00;;;;;22.62;59.49;101395.84;5079992;28;46908;-66
2022/08/26 07:57:47;;;;;;;;;12.25;10.75;;;;;22.64;59.51;101395.72;5080138;28;45316;-66
2022/08/26 08:00:15;;;;;;;;;10.50;9.50;;;;;22.67;59.22;101399.09;5079981;28;45362;-66
2022/08/26 08:02:43;;;;;;;;;14.00;11.25;;;;;22.68;59.61;101397.22;5076411;28;45457;-65
2022/08/26 08:05:09;;;;;;;;;12.00;12.00;;;;;22.72;59.22;101402.34;5069002;27;45521;-66
2022/08/26 08:07:35;;;;;;;;;12.75;12.75;;;;;22.70;59.05;101397.97;5076186;28;45317;-65
2022/08/26 08:10:01;;;;;;;;;11.75;11.75;;;;;22.73;59.08;101401.34;5080433;28;45359;-66
2022/08/26 08:12:26;;;;;;;;;7.50;7.50;;;;;22.69;58.88;101391.66;5076837;28;45497;-66
2022/08/26 08:14:52;;;;;;;;;12.00;11.50;;;;;22.73;59.16;101406.78;5074660;27;48452;-66
2022/08/26 08:17:17;;;;;;;;;9.25;8.75;;;;;22.76;59.31;101412.00;5078670;28;45482;-66
2022/08/26 08:19:42;;;;;;;;;8.50;7.00;;;;;22.76;58.70;101405.69;5080475;28;45236;-66
2022/08/26 08:22:08;;;;;;;;;13.50;12.50;;;;;22.74;58.89;101392.19;5079595;28;45348;-66
2022/08/26 08:24:34;;;;;;;;;12.00;12.00;;;;;22.82;58.87;101401.63;5073947;27;46277;-66
2022/08/26 08:27:01;;;;;;;;;11.25;10.00;;;;;22.83;58.90;101404.25;5075763;27;45422;-64
2022/08/26 08:29:28;;;;;;;;;11.00;10.00;;;;;22.85;58.70;101407.72;5071309;27;45483;-64
2022/08/26 08:31:56;;;;;;;;;12.50;11.25;;;;;22.89;58.78;101405.66;5078069;28;45442;-65
2022/08/26 08:34:24;;;;;;;;;11.75;11.50;;;;;22.83;58.61;101382.47;5078811;28;45567;-65
2022/08/26 08:36:49;;;;;;;;;13.00;13.00;;;;;22.91;58.59;101393.66;5079117;28;45421;-65
2022/08/26 08:39:16;;;;;;;;;11.50;9.50;;;;;22.89;58.66;101390.19;5076344;28;55820;-66
2022/08/26 08:42:12;;;;;;;;;11.75;10.75;;;;;22.96;58.89;101396.06;5078155;28;45537;-67
2022/08/26 08:44:41;;;;;;;;;11.25;10.50;;;;;23.01;59.12;101399.31;5078907;28;47039;-65
2022/08/26 08:47:46;;;;;;;;;11.00;10.00;;;;;23.07;58.51;101398.00;5079389;28;45378;-66
2022/08/26 08:50:21;;;;;;;;;11.00;11.00;;;;;23.13;58.48;101400.25;4979705;28;45608;-66
2022/08/26 08:53:00;;;;;;;;;10.00;9.25;;;;;23.17;58.47;101400.91;5064866;28;45470;-66
2022/08/26 08:55:37;;;;;;;;;16.00;14.25;;;;;23.18;58.58;101397.22;5074522;28;45694;-65
2022/08/26 08:58:07;;;;;;;;;14.25;13.25;;;;;23.18;58.31;101398.06;5076674;27;45769;-65
2022/08/26 09:00:56;;;;;;;;;14.75;13.25;;;;;23.22;58.19;101393.25;5074306;28;45490;-65
2022/08/26 09:03:41;;;;;;;;;11.75;11.75;;;;;23.20;58.53;101401.53;5059418;28;45510;-65
2022/08/26 09:06:15;;;;;;;;;15.75;12.00;;;;;23.23;58.26;101403.16;5076474;28;46926;-65
2022/08/26 09:08:43;;;;;;;;;11.00;10.50;;;;;23.23;58.17;101406.75;5076883;27;45397;-65
2022/08/26 09:11:08;;;;;;;;;14.25;12.75;;;;;23.24;58.29;101397.59;5078141;28;45528;-65
2022/08/26 09:13:35;;;;;;;;;10.75;10.25;;;;;23.22;57.80;101388.69;5076809;28;45571;-65
2022/08/26 09:16:15;;;;;;;;;10.25;9.25;;;;;23.28;57.82;101392.78;5058941;28;47344;-65
2022/08/26 09:19:15;;;;;;;;;8.00;8.00;;;;;23.30;57.75;101402.59;5078197;28;45516;-65
2022/08/26 09:21:40;;;;;;;;;10.00;8.00;;;;;23.30;57.51;101391.72;5077172;28;45780;-65
2022/08/26 09:24:06;;;;;;;;;9.00;8.50;;;;;23.31;57.11;101382.53;5072850;27;45357;-66
2022/08/26 09:26:38;;;;;;;;;8.50;8.50;;;;;23.40;57.23;101391.84;5072839;27;45396;-65
2022/08/26 09:29:10;;;;;;;;;8.50;7.25;;;;;23.39;57.10;101379.22;5078081;28;45253;-66
2022/08/26 09:31:40;;;;;;;;;10.25;10.25;;;;;23.43;57.01;101385.31;5068471;28;45485;-66
2022/08/26 09:34:17;;;;;;;;;10.75;9.75;;;;;23.45;56.26;101380.59;5076585;27;45328;-67
2022/08/26 09:36:55;;;;;;;;;10.00;8.75;;;;;23.45;56.77;101380.59;5051669;28;48340;-67
2022/08/26 09:39:26;;;;;;;;;6.25;6.25;;;;;23.52;56.91;101392.75;5077394;28;45934;-67
2022/08/26 09:42:10;;;;;;;;;9.25;9.25;;;;;23.52;56.27;101376.41;5059436;27;45430;-66
2022/08/26 09:44:51;;;;;;;;;9.00;7.00;;;;;23.53;56.21;101372.72;5060318;28;45259;-67
2022/08/26 09:47:21;;;;;;;;;8.75;8.00;;;;;23.54;56.46;101381.75;5077078;27;46113;-66
2022/08/26 09:50:18;;;;;;;;;9.50;9.50;;;;;23.58;56.10;101369.63;5064734;28;45373;-67
2022/08/26 09:52:43;;;;;;;;;9.75;9.75;;;;;23.65;55.93;101385.38;5054902;28;46645;-67
2022/08/26 09:55:08;;;;;;;;;7.75;7.75;;;;;23.71;56.41;101386.78;5068666;28;47157;-67
2022/08/26 09:57:46;;;;;;;;;5.75;5.75;;;;;23.69;55.94;101372.41;5066257;27;45445;-68
2022/08/26 10:00:54;;;;;;;;;9.50;9.50;;;;;23.77;55.66;101386.31;5073953;27;45497;-67
2022/08/26 10:03:26;;;;;;;;;8.75;7.75;;;;;23.68;55.81;101371.50;5062576;28;45560;-67
2022/08/26 10:05:57;;;;;;;;;11.50;10.25;;;;;23.72;55.64;101377.59;5068465;28;45521;-66
2022/08/26 10:08:28;;;;;;;;;8.00;8.00;;;;;23.61;55.50;101358.50;5064632;27;47131;-68
2022/08/26 10:10:56;;;;;;;;;9.50;8.75;;;;;23.76;55.22;101368.19;5062205;28;45819;-68
2022/08/26 10:13:39;;;;;;;;;9.75;8.50;;;;;23.83;55.15;101376.81;5068218;28;45407;-67
2022/08/26 10:16:25;;;;;;;;;8.50;8.50;;;;;23.87;54.88;101386.47;5081188;28;45382;-67
2022/08/26 10:18:59;;;;;;;;;7.00;6.25;;;;;23.78;55.56;101366.22;5061498;28;47922;-67
2022/08/26 10:21:48;;;;;;;;;7.50;6.50;;;;;23.88;54.39;101382.75;5079417;28;45653;-67
2022/08/26 10:24:21;;;;;;;;;7.25;7.25;;;;;23.86;55.36;101362.94;5061001;28;45441;-67
2022/08/26 10:27:10;;;;;;;;;8.25;8.25;;;;;23.89;54.55;101367.25;5073127;28;45439;-67
2022/08/26 10:29:44;;;;;;;;;9.00;9.00;;;;;23.98;54.07;101363.81;5078795;28;45464;-67
2022/08/26 10:32:21;;;;;;;;;6.50;6.50;;;;;24.04;54.17;101368.78;5066900;28;45881;-67
2022/08/26 10:34:46;;;;;;;;;7.25;7.25;;;;;24.04;53.87;101363.34;5081549;28;45493;-67
2022/08/26 10:37:28;;;;;;;;;7.25;5.25;;;;;24.07;53.44;101359.47;5061108;28;45683;-67
2022/08/26 10:40:06;;;;;;;;;6.00;6.00;;;;;24.18;52.72;101375.88;5080022;28;46449;-67
2022/08/26 10:42:43;;;;;;;;;6.00;6.00;;;;;24.18;53.24;101362.22;5080336;28;45598;-67
2022/08/26 10:45:15;;;;;;;;;7.25;7.25;;;;;24.20;53.34;101360.25;5080674;28;45462;-67
2022/08/26 10:48:04;;;;;;;;;10.50;7.25;;;;;24.29;53.18;101361.34;5062908;28;45553;-67
2022/08/26 10:50:40;;;;;;;;;6.50;6.25;;;;;24.32;53.28;101356.50;5051610;28;47338;-67
2022/08/26 10:53:38;;;;;;;;;7.50;6.75;;;;;24.38;53.21;101364.22;5073269;28;45527;-67
2022/08/26 10:56:27;;;;;;;;;7.00;7.00;;;;;24.42;53.23;101362.97;5061417;28;45399;-67
2022/08/26 10:59:14;;;;;;;;;8.50;7.50;;;;;24.49;53.16;101357.00;5077674;28;45572;-67
2022/08/26 11:02:06;;;;;;;;;6.00;6.00;;;;;24.52;52.57;101354.88;5065415;28;47661;-67
2022/08/26 11:04:31;;;;;;;;;6.75;6.00;;;;;24.53;51.89;101363.97;5069381;28;45463;-67
2022/08/26 11:07:32;;;;;;;;;7.75;7.75;;;;;24.53;51.78;101363.97;5075622;28;45447;-67
2022/08/26 11:10:05;;;;;;;;;8.75;7.25;;;;;24.46;52.09;101357.25;5077274;28;45492;-67
2022/08/26 11:12:33;;;;;;;;;8.25;7.75;;;;;24.50;52.65;101364.22;5068640;28;45617;-67
2022/08/26 11:14:59;;;;;;;;;9.25;9.25;;;;;24.46;52.68;101346.31;5079720;28;45461;-67
2022/08/26 11:17:42;;;;;;;;;8.75;8.75;;;;;24.57;52.40;101357.28;5061668;28;45726;-67
2022/08/26 11:20:47;;;;;;;;;8.50;8.50;;;;;24.56;52.35;101348.22;5059712;28;45402;-67
2022/08/26 11:23:15;;;;;;;;;7.75;6.00;;;;;24.65;52.15;101353.94;4996446;28;46033;-67
2022/08/26 11:25:55;;;;;;;;;10.00;6.75;;;;;24.68;51.89;101356.41;4996089;28;45824;-67
2022/08/26 11:28:46;;;;;;;;;5.75;5.75;;;;;24.60;51.54;101338.78;5046328;28;45508;-67
2022/08/26 11:31:18;;;;;;;;;8.00;8.00;;;;;24.70;50.90;101349.81;5061039;28;45735;-67